Yeso, New Mexico
Current Conditions -  °F | °C
As of 10:53 AM on Friday 31 Oct 2014 (Local Time) from KCQC Reporting Station
Clear Clear  
Wind Chill: 43°   Ceiling: Unl
Heat Index: 49°   Visibility: 10mi
Dew Point: 27°   Wind: 15mph
Humidity: 43%   Direction: 140°SE
Pressure: 30.44"   Gusts: 23mph
Location:  34.44°N, 104.61°W
Report Text: KCQC 311653Z AUTO 14013G20KT 10SM CLR 09/M03 A3044 RMK AO2 SLP270 T00941028
Loading
Personal Weather Stations






























Interactive Weather Map
Tropical Storm Tracking
New forecast layout! Learn more

10-Day Weather Forecast

Advertisements
Track Severe Weather on mobile